createdAt,value
2022-12-26T00:00:54.772Z,9.20
2022-12-26T00:02:28.060Z,12.68
2022-12-26T00:04:02.168Z,12.82
2022-12-26T00:05:36.995Z,10.20
2022-12-26T00:07:10.060Z,11.75
2022-12-26T00:08:43.723Z,12.65
2022-12-26T00:10:16.897Z,13.68
2022-12-26T00:11:50.087Z,13.18
2022-12-26T00:13:39.997Z,16.58
2022-12-26T00:15:14.190Z,15.10
2022-12-26T00:16:47.731Z,18.40
2022-12-26T00:18:20.109Z,16.13
2022-12-26T00:19:54.730Z,14.18
2022-12-26T00:21:29.164Z,14.40
2022-12-26T00:23:02.613Z,11.63
2022-12-26T00:24:35.779Z,10.77
2022-12-26T00:26:10.345Z,8.52
2022-12-26T00:27:43.482Z,9.02
2022-12-26T00:29:16.822Z,11.98
2022-12-26T00:30:48.913Z,11.23
2022-12-26T00:32:22.053Z,14.02
2022-12-26T00:33:58.276Z,11.50
2022-12-26T00:35:31.816Z,11.13
2022-12-26T00:37:04.939Z,13.07
2022-12-26T00:38:38.098Z,9.48
2022-12-26T00:40:12.813Z,12.65
2022-12-26T00:41:45.990Z,9.65
2022-12-26T00:43:18.137Z,7.88
2022-12-26T00:44:51.360Z,7.40
2022-12-26T00:46:24.018Z,7.65
2022-12-26T00:47:57.227Z,7.82
2022-12-26T00:50:14.253Z,10.70
2022-12-26T00:51:25.125Z,8.32
2022-12-26T00:52:57.305Z,7.00
2022-12-26T00:54:30.483Z,8.68
2022-12-26T00:56:02.883Z,7.28
2022-12-26T00:57:36.035Z,7.97
2022-12-26T00:59:09.199Z,9.85
2022-12-26T01:00:41.861Z,7.95
2022-12-26T01:02:29.113Z,8.13
2022-12-26T01:04:02.367Z,6.82
2022-12-26T01:05:35.669Z,7.80
2022-12-26T01:07:10.307Z,7.57
2022-12-26T01:08:44.119Z,8.55
2022-12-26T01:10:16.580Z,6.97
2022-12-26T01:11:49.710Z,7.38
2022-12-26T01:13:22.062Z,8.48
2022-12-26T01:14:57.146Z,6.63
2022-12-26T01:16:30.445Z,8.15
2022-12-26T01:18:02.815Z,6.78
2022-12-26T01:19:35.986Z,7.35
2022-12-26T01:21:11.744Z,7.68
2022-12-26T01:22:45.286Z,7.93
2022-12-26T01:24:18.479Z,6.68
2022-12-26T01:26:16.774Z,7.32
2022-12-26T01:27:43.677Z,7.93
2022-12-26T01:29:16.833Z,8.75
2022-12-26T01:30:49.011Z,9.82
2022-12-26T01:32:22.127Z,11.52
2022-12-26T01:33:55.366Z,12.88
2022-12-26T01:35:27.531Z,13.95
2022-12-26T01:37:00.732Z,15.05
2022-12-26T01:38:35.327Z,14.07
2022-12-26T01:40:08.482Z,14.35
2022-12-26T01:41:41.737Z,15.15
2022-12-26T01:43:16.933Z,12.93
2022-12-26T01:45:07.963Z,15.80
2022-12-26T01:46:44.061Z,16.25
2022-12-26T01:48:21.964Z,17.52
2022-12-26T01:49:55.732Z,18.23
2022-12-26T01:51:33.177Z,19.20
2022-12-26T01:53:12.849Z,18.88
2022-12-26T01:54:51.366Z,17.35
2022-12-26T01:56:30.601Z,19.42
2022-12-26T01:58:08.155Z,19.17
2022-12-26T01:59:43.263Z,18.95
2022-12-26T02:01:15.881Z,20.10
2022-12-26T02:03:07.372Z,18.48
2022-12-26T02:05:05.084Z,17.92
2022-12-26T02:06:41.313Z,18.58
2022-12-26T02:08:18.476Z,21.27
2022-12-26T02:09:53.408Z,20.50
2022-12-26T02:11:32.798Z,23.33
2022-12-26T02:13:05.533Z,20.52
2022-12-26T02:14:39.450Z,21.15
2022-12-26T02:16:15.475Z,20.65
2022-12-26T02:17:47.761Z,21.30
2022-12-26T02:19:34.264Z,22.70
2022-12-26T02:21:27.205Z,21.42
2022-12-26T02:23:38.243Z,22.10
2022-12-26T02:25:29.528Z,20.55
2022-12-26T02:27:37.145Z,18.38
2022-12-26T02:29:42.724Z,15.07
2022-12-26T02:31:21.266Z,12.80
2022-12-26T02:33:24.540Z,12.20
2022-12-26T02:35:07.440Z,10.40
2022-12-26T02:37:06.133Z,8.25
2022-12-26T02:38:48.832Z,7.78
2022-12-26T02:40:33.612Z,6.50
2022-12-26T02:42:20.753Z,7.10
2022-12-26T02:44:26.234Z,6.43
2022-12-26T02:46:27.196Z,5.50
2022-12-26T02:48:09.237Z,7.25
2022-12-26T02:50:12.339Z,6.82
2022-12-26T02:52:13.793Z,5.75
2022-12-26T02:54:13.096Z,6.18
2022-12-26T02:56:06.298Z,5.40
2022-12-26T02:58:04.883Z,6.55
2022-12-26T03:00:05.042Z,6.40
2022-12-26T03:01:58.847Z,6.20
2022-12-26T03:03:54.917Z,6.93
2022-12-26T03:05:49.347Z,7.00
2022-12-26T03:07:47.764Z,7.18
2022-12-26T03:09:43.023Z,6.60
2022-12-26T03:11:31.367Z,6.43
2022-12-26T03:13:11.941Z,5.57
2022-12-26T03:14:49.900Z,5.20
2022-12-26T03:16:43.458Z,5.68
2022-12-26T03:18:17.023Z,5.15
2022-12-26T03:20:01.381Z,4.90
2022-12-26T03:21:38.585Z,6.13
2022-12-26T03:23:16.763Z,6.97
2022-12-26T03:25:04.510Z,7.53
2022-12-26T03:26:41.707Z,9.55
2022-12-26T03:28:14.201Z,10.60
2022-12-26T03:30:04.845Z,9.07
2022-12-26T03:31:38.018Z,9.77
2022-12-26T03:33:30.717Z,9.00
2022-12-26T03:35:13.991Z,9.07
2022-12-26T03:36:59.318Z,8.57
2022-12-26T03:38:37.436Z,11.38
2022-12-26T03:40:38.799Z,11.00
2022-12-26T03:42:32.208Z,13.20
2022-12-26T03:44:38.672Z,13.05
2022-12-26T03:46:40.434Z,16.58
2022-12-26T03:48:39.814Z,18.42
2022-12-26T03:50:40.153Z,18.90
2022-12-26T03:52:37.831Z,17.67
2022-12-26T03:54:31.887Z,21.30
2022-12-26T03:56:29.510Z,22.40
2022-12-26T03:58:29.063Z,21.73
2022-12-26T04:00:23.659Z,23.98
2022-12-26T04:02:19.106Z,26.25
2022-12-26T04:04:12.728Z,27.58
2022-12-26T04:06:08.452Z,24.02
2022-12-26T04:08:03.665Z,25.10
2022-12-26T04:10:13.631Z,24.23
2022-12-26T04:12:04.686Z,27.73
2022-12-26T04:14:04.789Z,27.05
2022-12-26T04:16:03.025Z,31.30
2022-12-26T04:17:58.921Z,28.42
2022-12-26T04:20:00.316Z,32.72
2022-12-26T04:21:58.482Z,27.25
2022-12-26T04:23:53.326Z,27.67
2022-12-26T04:25:51.436Z,27.25
2022-12-26T04:27:46.294Z,31.13
2022-12-26T04:29:37.150Z,35.83
2022-12-26T04:31:35.447Z,95.15
2022-12-26T04:33:33.251Z,26.10
2022-12-26T04:35:28.803Z,25.33
2022-12-26T04:37:25.020Z,23.13
2022-12-26T04:39:19.719Z,21.48
2022-12-26T04:41:15.842Z,20.40
2022-12-26T04:43:48.894Z,18.52
2022-12-26T04:45:00.703Z,24.10
2022-12-26T04:46:34.609Z,31.05
2022-12-26T04:48:25.201Z,25.38
2022-12-26T04:50:13.248Z,18.35
2022-12-26T04:51:45.424Z,18.98
2022-12-26T04:53:20.650Z,14.57
2022-12-26T04:54:52.829Z,18.63
2022-12-26T04:56:25.935Z,20.90
2022-12-26T04:57:59.705Z,19.33
2022-12-26T04:59:33.124Z,20.70
2022-12-26T05:01:20.183Z,19.65
2022-12-26T05:03:16.268Z,13.68
2022-12-26T05:05:08.895Z,13.70
2022-12-26T05:06:59.851Z,14.35
2022-12-26T05:08:55.363Z,16.23
2022-12-26T05:10:29.906Z,15.35
2022-12-26T05:12:02.300Z,11.68
2022-12-26T05:13:35.436Z,12.00
2022-12-26T05:15:09.391Z,13.23
2022-12-26T05:16:58.956Z,12.73
2022-12-26T05:18:49.385Z,14.85
2022-12-26T05:20:44.952Z,11.68
2022-12-26T05:22:35.628Z,10.27
2022-12-26T05:24:29.458Z,11.25
2022-12-26T05:26:21.512Z,10.60
2022-12-26T05:28:12.744Z,13.75
2022-12-26T05:29:45.892Z,20.33
2022-12-26T05:31:19.226Z,24.85
2022-12-26T05:33:09.882Z,19.45
2022-12-26T05:34:42.034Z,19.42
2022-12-26T05:36:17.322Z,24.20
2022-12-26T05:37:50.478Z,25.05
2022-12-26T05:39:24.983Z,20.60
2022-12-26T05:40:57.218Z,19.38
2022-12-26T05:42:30.339Z,22.10
2022-12-26T05:44:03.624Z,17.02
2022-12-26T05:45:36.740Z,13.95
2022-12-26T05:47:09.859Z,21.52
2022-12-26T05:48:43.002Z,24.23
2022-12-26T05:50:16.438Z,22.15
2022-12-26T05:51:49.595Z,21.27
2022-12-26T05:53:21.723Z,15.93
2022-12-26T05:54:56.290Z,18.58
2022-12-26T05:56:28.687Z,19.55
2022-12-26T05:58:02.706Z,23.88
2022-12-26T05:59:35.950Z,21.38
2022-12-26T06:01:09.583Z,14.13
2022-12-26T06:02:43.013Z,14.45
2022-12-26T06:04:16.557Z,12.55
2022-12-26T06:05:48.654Z,13.23
2022-12-26T06:07:21.903Z,12.93
2022-12-26T06:08:57.322Z,14.45
2022-12-26T06:10:32.385Z,17.38
2022-12-26T06:12:05.896Z,27.67
2022-12-26T06:13:41.033Z,32.58
2022-12-26T06:15:14.169Z,66.78
2022-12-26T06:16:47.928Z,69.18
2022-12-26T06:18:20.104Z,24.67
2022-12-26T06:19:53.300Z,21.85
2022-12-26T06:21:26.769Z,23.27
2022-12-26T06:22:58.923Z,23.38
2022-12-26T06:24:32.423Z,22.67
2022-12-26T06:26:10.531Z,38.15
2022-12-26T06:27:44.907Z,51.85
2022-12-26T06:29:18.372Z,53.63
2022-12-26T06:30:51.877Z,45.55
2022-12-26T06:32:26.088Z,42.85
2022-12-26T06:34:01.909Z,67.20
2022-12-26T06:35:35.758Z,49.20
2022-12-26T06:37:08.962Z,45.35
2022-12-26T06:38:42.971Z,41.03
2022-12-26T06:40:16.904Z,44.15
2022-12-26T06:41:51.922Z,43.90
2022-12-26T06:43:24.161Z,44.33
2022-12-26T06:45:00.585Z,37.47
2022-12-26T06:46:33.822Z,36.47
2022-12-26T08:19:19.805Z,28.60
2022-12-26T08:20:53.526Z,31.13
2022-12-26T08:22:26.843Z,28.52
2022-12-26T08:24:00.100Z,31.20
2022-12-26T08:25:33.964Z,32.15
2022-12-26T08:27:07.226Z,31.58
2022-12-26T08:28:40.803Z,30.58
2022-12-26T08:30:14.573Z,35.03
2022-12-26T08:31:47.760Z,37.13
2022-12-26T08:33:20.938Z,36.83
2022-12-26T08:34:55.443Z,40.10
2022-12-26T08:36:28.766Z,36.53
2022-12-26T08:38:02.095Z,47.67
2022-12-26T08:39:35.320Z,33.72
2022-12-26T08:41:08.624Z,36.22
2022-12-26T08:42:56.212Z,35.08
2022-12-26T08:44:35.853Z,32.10
2022-12-26T08:46:10.929Z,27.13
2022-12-26T08:47:44.165Z,25.38
2022-12-26T08:49:17.506Z,32.85
2022-12-26T08:50:57.077Z,30.67
2022-12-26T08:52:30.281Z,30.42
2022-12-26T08:54:03.714Z,34.55
2022-12-26T08:55:37.601Z,33.70
2022-12-26T08:57:11.004Z,31.15
2022-12-26T08:58:46.066Z,34.45
2022-12-26T09:00:19.798Z,40.33
2022-12-26T09:01:53.222Z,39.92
2022-12-26T09:03:26.468Z,34.70
2022-12-26T09:04:59.651Z,30.35
2022-12-26T09:06:36.194Z,31.00
2022-12-26T09:08:09.365Z,30.95
2022-12-26T09:09:42.507Z,32.22
2022-12-26T09:11:18.058Z,37.38
2022-12-26T09:12:51.177Z,35.20
2022-12-26T09:14:24.357Z,36.33
2022-12-26T09:15:56.463Z,33.75
2022-12-26T09:17:29.669Z,31.75
2022-12-26T09:19:03.664Z,29.67
2022-12-26T09:20:35.816Z,33.38
2022-12-26T09:22:33.382Z,29.08
2022-12-26T09:24:12.232Z,25.70
2022-12-26T09:25:45.422Z,28.33
2022-12-26T09:27:18.681Z,25.15
2022-12-26T09:28:52.010Z,28.00
2022-12-26T09:30:25.137Z,26.42
2022-12-26T09:31:58.310Z,26.98
2022-12-26T09:33:33.276Z,25.33
2022-12-26T09:35:07.713Z,24.80
2022-12-26T09:36:41.071Z,24.85
2022-12-26T09:38:15.936Z,23.40
2022-12-26T09:39:49.103Z,22.65
2022-12-26T09:41:40.600Z,24.08
2022-12-26T09:43:25.127Z,25.08
2022-12-26T09:45:10.214Z,21.90
2022-12-26T09:46:49.517Z,22.40
2022-12-26T09:48:32.032Z,19.23
2022-12-26T09:50:12.529Z,17.85
2022-12-26T09:51:50.748Z,17.75
2022-12-26T09:53:31.160Z,16.83
2022-12-26T09:55:08.119Z,16.25
2022-12-26T09:58:40.932Z,19.23
2022-12-26T10:00:20.645Z,17.23
2022-12-26T10:01:54.808Z,18.17
2022-12-26T10:03:28.607Z,18.45
2022-12-26T10:05:02.073Z,17.17
2022-12-26T10:06:40.082Z,19.48
2022-12-26T10:08:25.445Z,19.05
2022-12-26T10:10:10.403Z,18.50
2022-12-26T10:12:15.341Z,15.98
2022-12-26T10:13:53.328Z,14.52
2022-12-26T10:15:37.365Z,17.65
2022-12-26T10:17:19.499Z,15.80
2022-12-26T10:19:02.566Z,14.38
2022-12-26T10:20:44.889Z,14.55
2022-12-26T10:22:34.135Z,10.93
2022-12-26T10:24:15.858Z,12.27
2022-12-26T10:25:55.078Z,13.85
2022-12-26T10:27:32.330Z,13.23
2022-12-26T10:29:17.445Z,13.90
2022-12-26T10:30:54.073Z,13.15
2022-12-26T10:32:33.952Z,15.38
2022-12-26T10:34:13.231Z,15.48
2022-12-26T10:35:47.986Z,14.88
2022-12-26T10:37:27.730Z,11.85
2022-12-26T10:39:03.430Z,12.27
2022-12-26T10:40:40.676Z,9.27
2022-12-26T10:42:23.841Z,11.30
2022-12-26T10:43:57.060Z,11.90
2022-12-26T10:45:37.378Z,13.48
2022-12-26T10:47:21.535Z,14.25
2022-12-26T10:48:54.324Z,13.27
2022-12-26T10:50:29.320Z,13.18
2022-12-26T10:52:04.529Z,11.77
2022-12-26T10:53:42.787Z,13.30
2022-12-26T10:55:29.579Z,9.18
2022-12-26T10:57:05.559Z,9.60
2022-12-26T10:58:42.307Z,6.32
2022-12-26T11:00:19.820Z,8.05
2022-12-26T11:01:53.020Z,9.77
2022-12-26T11:03:26.349Z,13.70
2022-12-26T11:06:57.154Z,13.13
2022-12-26T11:08:40.723Z,14.10
2022-12-26T11:10:21.048Z,14.93
2022-12-26T11:11:54.523Z,13.60
2022-12-26T11:13:28.346Z,10.50
2022-12-26T11:15:05.752Z,7.18
2022-12-26T11:16:41.673Z,7.93
2022-12-26T11:18:20.862Z,7.90
2022-12-26T11:20:23.908Z,7.30
2022-12-26T11:22:21.455Z,8.63
2022-12-26T11:24:17.232Z,8.35
2022-12-26T11:25:52.762Z,9.60
2022-12-26T11:27:25.934Z,10.10
2022-12-26T11:29:12.204Z,9.57
2022-12-26T11:30:49.386Z,11.77
2022-12-26T11:32:22.518Z,14.52
2022-12-26T11:33:55.796Z,12.27
2022-12-26T11:35:35.119Z,12.60
2022-12-26T11:37:25.358Z,14.52
2022-12-26T11:39:01.581Z,14.68
2022-12-26T11:40:38.776Z,13.57
2022-12-26T11:42:12.906Z,11.75
2022-12-26T11:43:45.129Z,11.93
2022-12-26T11:45:23.700Z,14.73
2022-12-26T11:47:08.778Z,13.52
2022-12-26T11:48:42.411Z,9.82
2022-12-26T11:50:21.370Z,8.77
2022-12-26T11:51:59.331Z,8.35
2022-12-26T11:53:34.919Z,9.65
2022-12-26T11:55:31.257Z,21.23
2022-12-26T11:57:16.446Z,11.43
2022-12-26T11:58:49.657Z,12.23
2022-12-26T12:00:22.507Z,10.75
2022-12-26T12:02:23.884Z,11.48
2022-12-26T12:03:58.841Z,10.70
2022-12-26T12:05:43.845Z,12.38
2022-12-26T12:07:30.169Z,10.65
2022-12-26T12:09:12.541Z,9.50
2022-12-26T12:11:11.085Z,8.95
2022-12-26T12:12:52.405Z,8.10
2022-12-26T12:14:39.375Z,10.90
2022-12-26T12:16:31.625Z,13.70
2022-12-26T12:18:16.632Z,15.10
2022-12-26T12:20:04.411Z,16.42
2022-12-26T12:21:43.784Z,14.15
2022-12-26T12:23:42.289Z,14.30
2022-12-26T12:25:41.580Z,16.55
2022-12-26T12:27:22.776Z,13.35
2022-12-26T12:29:21.273Z,13.38
2022-12-26T12:31:02.079Z,13.45
2022-12-26T12:33:10.072Z,19.92
2022-12-26T12:35:17.768Z,41.33
2022-12-26T12:37:05.769Z,21.00
2022-12-26T12:38:59.143Z,18.88
2022-12-26T12:40:39.019Z,12.90
2022-12-26T12:42:29.769Z,13.82
2022-12-26T12:44:09.350Z,13.45
2022-12-26T12:45:55.744Z,14.18
2022-12-26T12:47:37.239Z,13.55
2022-12-26T12:49:37.253Z,13.25
2022-12-26T12:51:21.667Z,8.50
2022-12-26T12:53:06.231Z,14.35
2022-12-26T12:55:24.523Z,16.35
2022-12-26T12:57:06.649Z,14.25
2022-12-26T12:58:51.959Z,13.48
2022-12-26T13:00:29.927Z,15.45
2022-12-26T13:02:20.494Z,17.63
2022-12-26T13:03:59.739Z,19.88
2022-12-26T13:05:43.541Z,15.82
2022-12-26T13:07:22.847Z,26.77
2022-12-26T13:09:02.225Z,27.35
2022-12-26T13:10:39.592Z,21.88
2022-12-26T13:12:19.495Z,18.75
2022-12-26T13:13:57.628Z,13.77
2022-12-26T13:15:35.740Z,13.60
2022-12-26T13:17:12.831Z,10.35
2022-12-26T13:18:52.555Z,12.40
2022-12-26T13:20:31.501Z,17.98
2022-12-26T13:22:08.216Z,12.27
2022-12-26T13:24:05.599Z,10.57
2022-12-26T13:25:42.783Z,9.45
2022-12-26T13:27:21.583Z,11.50
2022-12-26T13:29:00.698Z,11.60
2022-12-26T13:30:34.434Z,16.30
2022-12-26T13:32:19.203Z,20.25
2022-12-26T13:33:52.693Z,15.13
2022-12-26T13:35:54.080Z,14.32
2022-12-26T13:37:55.670Z,13.63
2022-12-26T13:39:46.780Z,11.63
2022-12-26T13:41:34.710Z,11.30
2022-12-26T13:43:35.317Z,12.77
2022-12-26T13:45:58.184Z,14.48
2022-12-26T13:47:37.329Z,14.75
2022-12-26T13:49:30.184Z,12.93
2022-12-26T13:51:06.088Z,12.90
2022-12-26T13:52:42.252Z,13.00
2022-12-26T13:54:16.480Z,18.20
2022-12-26T13:55:54.035Z,21.17
2022-12-26T13:57:39.556Z,12.55
2022-12-26T13:59:17.022Z,18.42
2022-12-26T14:00:51.986Z,16.38
2022-12-26T14:03:16.587Z,17.88
2022-12-26T14:04:52.927Z,19.42
2022-12-26T14:06:55.755Z,17.15
2022-12-26T14:08:38.339Z,18.50
2022-12-26T14:10:20.604Z,20.77
2022-12-26T14:12:10.177Z,25.27
2022-12-26T14:13:58.225Z,27.23
2022-12-26T14:15:40.332Z,31.35
2022-12-26T14:17:24.009Z,34.40
2022-12-26T14:19:05.200Z,38.60
2022-12-26T14:20:46.173Z,31.02
2022-12-26T14:22:27.907Z,33.72
2022-12-26T14:24:10.265Z,33.97
2022-12-26T14:25:53.635Z,37.55
2022-12-26T14:27:35.637Z,43.15
2022-12-26T14:29:17.889Z,41.80
2022-12-26T14:31:08.027Z,45.22
2022-12-26T14:32:48.815Z,41.92
2022-12-26T14:34:31.312Z,36.17
2022-12-26T14:36:17.557Z,31.90
2022-12-26T14:38:01.236Z,30.17
2022-12-26T14:39:43.999Z,38.10
2022-12-26T14:41:33.683Z,42.78
2022-12-26T14:43:15.048Z,53.50
2022-12-26T14:44:47.423Z,44.45
2022-12-26T14:46:58.911Z,35.55
2022-12-26T14:48:58.327Z,35.00
2022-12-26T14:50:43.998Z,36.03
2022-12-26T14:52:49.424Z,29.80
2022-12-26T14:54:50.924Z,31.15
2022-12-26T14:56:35.844Z,46.67
2022-12-26T14:58:42.145Z,45.30
2022-12-26T15:00:35.128Z,44.78
2022-12-26T15:02:13.244Z,42.92
2022-12-26T15:03:53.493Z,41.75
2022-12-26T15:05:28.176Z,43.10
2022-12-26T15:07:26.934Z,38.83
2022-12-26T15:09:16.134Z,113.22
2022-12-26T15:11:11.978Z,125.43
2022-12-26T15:13:18.633Z,67.88
2022-12-26T15:15:23.974Z,53.03
2022-12-26T15:17:09.110Z,49.05
2022-12-26T15:19:33.141Z,65.30
2022-12-26T15:21:31.555Z,74.13
2022-12-26T15:23:43.867Z,57.97
2022-12-26T15:25:49.597Z,60.55
2022-12-26T15:27:50.528Z,57.40
2022-12-26T15:29:44.412Z,55.40
2022-12-26T15:31:31.864Z,56.40
2022-12-26T15:33:14.119Z,57.75
2022-12-26T15:34:57.176Z,59.78
2022-12-26T15:36:42.192Z,50.90
2022-12-26T15:38:25.883Z,89.43
2022-12-26T15:40:11.671Z,92.45
2022-12-26T15:41:48.863Z,85.40
2022-12-26T15:43:38.648Z,86.55
2022-12-26T15:45:45.132Z,68.97
2022-12-26T15:47:26.027Z,73.90
2022-12-26T15:49:20.619Z,75.82
2022-12-26T15:50:59.998Z,48.80
2022-12-26T15:52:47.766Z,32.78
2022-12-26T15:54:38.593Z,40.60
2022-12-26T15:56:36.751Z,22.02
2022-12-26T15:58:25.527Z,18.35
2022-12-26T16:00:13.011Z,24.63
2022-12-26T16:01:48.879Z,26.50
2022-12-26T16:03:32.061Z,18.27
2022-12-26T16:05:40.850Z,16.08
2022-12-26T16:07:29.832Z,18.67
2022-12-26T16:09:16.825Z,20.83
2022-12-26T16:10:55.732Z,14.43
2022-12-26T16:12:31.656Z,15.48
2022-12-26T16:14:06.931Z,14.48
2022-12-26T16:15:47.089Z,17.10
2022-12-26T16:17:23.063Z,15.90
2022-12-26T16:18:56.615Z,15.95
2022-12-26T16:20:51.212Z,18.35
2022-12-26T16:22:47.327Z,18.38
2022-12-26T16:24:20.484Z,16.35
2022-12-26T16:25:57.111Z,13.90
2022-12-26T16:27:31.734Z,12.45
2022-12-26T16:29:06.812Z,13.32
2022-12-26T16:30:40.112Z,17.75
2022-12-26T16:32:18.839Z,16.88
2022-12-26T16:33:57.224Z,15.55
2022-12-26T16:35:34.554Z,18.83
2022-12-26T16:37:07.154Z,20.10
2022-12-26T16:38:42.153Z,28.25
2022-12-26T16:40:19.806Z,33.10
2022-12-26T16:42:02.560Z,44.20
2022-12-26T16:43:36.454Z,38.80
2022-12-26T16:45:19.216Z,40.15
2022-12-26T16:46:52.521Z,45.42
2022-12-26T16:48:29.538Z,48.30
2022-12-26T16:50:06.316Z,46.45
2022-12-26T16:51:45.814Z,44.40
2022-12-26T16:53:20.665Z,25.33
2022-12-26T16:54:55.267Z,19.73
2022-12-26T16:56:32.743Z,18.38
2022-12-26T16:58:17.918Z,23.55
2022-12-26T16:59:56.316Z,20.38
2022-12-26T17:01:28.781Z,48.75
2022-12-26T17:03:03.935Z,37.55
2022-12-26T17:04:37.559Z,51.35
2022-12-26T17:06:15.131Z,42.53
2022-12-26T17:07:54.556Z,43.30
2022-12-26T17:09:31.474Z,46.60
2022-12-26T17:11:06.341Z,47.85
2022-12-26T17:12:41.107Z,46.58
2022-12-26T17:14:21.459Z,43.78
2022-12-26T17:15:58.355Z,37.78
2022-12-26T17:17:34.786Z,42.63
2022-12-26T17:19:18.428Z,42.22
2022-12-26T17:20:51.936Z,32.08
2022-12-26T17:22:33.377Z,27.02
2022-12-26T17:24:30.312Z,27.73
2022-12-26T17:26:22.337Z,29.13
2022-12-26T17:28:23.815Z,18.70
2022-12-26T17:30:05.103Z,16.75
2022-12-26T17:31:41.157Z,19.83
2022-12-26T17:33:17.688Z,18.35
2022-12-26T17:34:51.428Z,19.33
2022-12-26T17:38:25.653Z,25.17
2022-12-26T17:40:05.292Z,40.42
2022-12-26T17:41:43.979Z,26.58
2022-12-26T17:43:25.568Z,34.85
2022-12-26T17:44:59.743Z,18.77
2022-12-26T17:46:32.949Z,20.38
2022-12-26T17:48:06.728Z,19.67
2022-12-26T17:49:39.538Z,23.05
2022-12-26T17:51:17.832Z,16.40
2022-12-26T17:52:51.760Z,13.40
2022-12-26T17:54:27.134Z,17.02
2022-12-26T17:56:05.813Z,14.95
2022-12-26T17:57:40.609Z,14.07
2022-12-26T17:59:16.729Z,15.88
2022-12-26T18:00:50.878Z,12.95
2022-12-26T18:02:24.930Z,13.27
2022-12-26T18:03:57.458Z,15.40
2022-12-26T18:05:31.179Z,79.13
2022-12-26T18:07:03.752Z,28.75
2022-12-26T18:08:40.400Z,21.67
2022-12-26T18:10:19.408Z,19.90
2022-12-26T18:11:53.229Z,18.38
2022-12-26T18:13:28.387Z,9.98
2022-12-26T18:15:02.752Z,12.55
2022-12-26T18:16:36.419Z,12.35
2022-12-26T18:18:20.592Z,11.48
2022-12-26T18:19:54.197Z,11.90
2022-12-26T18:21:27.694Z,12.25
2022-12-26T18:23:01.041Z,12.60
2022-12-26T18:24:34.637Z,15.60
2022-12-26T18:26:18.007Z,15.07
2022-12-26T18:27:52.317Z,13.10
2022-12-26T18:29:26.888Z,11.35
2022-12-26T18:31:00.234Z,11.13
2022-12-26T18:32:35.559Z,10.82
2022-12-26T18:34:08.829Z,11.52
2022-12-26T18:35:43.581Z,14.40
2022-12-26T18:37:17.272Z,12.90
2022-12-26T18:38:50.951Z,12.85
2022-12-26T18:40:33.012Z,11.77
2022-12-26T18:42:08.474Z,13.02
2022-12-26T18:43:42.066Z,13.73
2022-12-26T18:45:17.011Z,12.48
2022-12-26T18:46:52.212Z,12.40
2022-12-26T18:48:25.624Z,13.40
2022-12-26T18:49:58.925Z,13.82
2022-12-26T18:51:32.316Z,20.10
2022-12-26T18:53:05.790Z,17.38
2022-12-26T18:54:39.326Z,18.65
2022-12-26T18:56:16.987Z,14.35
2022-12-26T18:57:50.873Z,16.75
2022-12-26T18:59:24.314Z,14.50
2022-12-26T19:01:06.226Z,11.55
2022-12-26T19:02:42.497Z,10.57
2022-12-26T19:04:16.841Z,11.15
2022-12-26T19:05:50.446Z,11.57
2022-12-26T19:07:22.841Z,12.13
2022-12-26T19:08:56.588Z,13.15
2022-12-26T19:10:32.506Z,11.05
2022-12-26T19:12:06.204Z,11.18
2022-12-26T19:13:39.564Z,12.48
2022-12-26T19:15:13.182Z,11.02
2022-12-26T19:16:47.905Z,12.68
2022-12-26T19:18:21.133Z,10.30
2022-12-26T19:19:54.563Z,11.32
2022-12-26T19:21:27.859Z,10.30
2022-12-26T19:23:07.025Z,9.32
2022-12-26T19:24:40.353Z,22.50
2022-12-26T19:26:15.977Z,17.45
2022-12-26T19:27:50.606Z,23.15
2022-12-26T19:29:24.093Z,21.23
2022-12-26T19:30:57.337Z,25.58
2022-12-26T19:32:31.977Z,34.47
2022-12-26T19:34:05.363Z,26.52
2022-12-26T19:35:38.694Z,31.13
2022-12-26T19:37:11.942Z,21.10
2022-12-26T19:38:45.153Z,21.60
2022-12-26T19:40:24.553Z,20.85
2022-12-26T19:41:58.418Z,27.35
2022-12-26T19:43:32.054Z,36.63
2022-12-26T19:45:05.643Z,38.80
2022-12-26T19:46:39.101Z,30.20
2022-12-26T19:48:13.778Z,36.00
2022-12-26T19:49:47.183Z,23.73
2022-12-26T19:51:21.566Z,20.77
2022-12-26T19:52:54.739Z,16.50
2022-12-26T19:54:27.990Z,19.52
2022-12-26T19:56:01.220Z,18.23
2022-12-26T19:57:35.045Z,19.60
2022-12-26T19:59:08.226Z,27.33
2022-12-26T20:00:43.700Z,20.42
2022-12-26T20:02:17.200Z,17.60
2022-12-26T20:03:55.723Z,16.15
2022-12-26T20:05:29.046Z,17.80
2022-12-26T20:07:02.538Z,21.45
2022-12-26T20:08:35.928Z,41.78
2022-12-26T20:10:09.391Z,43.83
2022-12-26T20:11:44.996Z,38.97
2022-12-26T20:13:18.178Z,28.67
2022-12-26T20:14:51.416Z,27.08
2022-12-26T20:17:03.281Z,30.15
2022-12-26T20:18:18.611Z,29.17
2022-12-26T20:19:53.129Z,23.77
2022-12-26T20:21:26.381Z,25.95
2022-12-26T20:22:59.522Z,22.25
2022-12-26T20:24:32.943Z,21.00
2022-12-26T20:26:08.709Z,17.08
2022-12-26T20:27:41.949Z,19.55
2022-12-26T20:29:15.806Z,18.77
2022-12-26T20:30:58.708Z,16.48
2022-12-26T20:32:32.017Z,19.13
2022-12-26T20:34:05.286Z,20.33
2022-12-26T20:35:39.827Z,26.25
2022-12-26T20:37:13.074Z,38.58
2022-12-26T20:38:47.561Z,16.85
2022-12-26T20:40:20.688Z,12.40
2022-12-26T20:41:53.980Z,16.42
2022-12-26T20:43:28.150Z,18.20
2022-12-26T20:45:01.370Z,28.38
2022-12-26T20:46:36.378Z,20.90
2022-12-26T20:48:09.582Z,25.02
2022-12-26T20:49:42.713Z,29.35
2022-12-26T20:51:19.960Z,26.15
2022-12-26T20:52:53.069Z,24.65
2022-12-26T20:54:26.724Z,39.50
2022-12-26T20:56:00.161Z,23.75
2022-12-26T20:57:33.351Z,113.20
2022-12-26T20:59:07.227Z,109.43
2022-12-26T21:00:44.927Z,29.90
2022-12-26T21:02:18.309Z,36.90
2022-12-26T21:03:54.480Z,28.30
2022-12-26T21:05:27.604Z,40.63
2022-12-26T21:07:02.176Z,28.33
2022-12-26T21:08:34.625Z,24.58
2022-12-26T21:10:08.975Z,28.42
2022-12-26T21:11:42.717Z,38.47
2022-12-26T21:13:15.874Z,42.28
2022-12-26T21:14:49.014Z,50.03
2022-12-26T21:16:24.096Z,48.70
2022-12-26T21:17:57.311Z,59.05
2022-12-26T21:19:30.805Z,37.95
2022-12-26T21:21:09.768Z,30.23
2022-12-26T21:22:44.480Z,24.70
2022-12-26T21:24:20.443Z,22.08
2022-12-26T21:25:58.674Z,23.05
2022-12-26T21:27:31.825Z,24.10
2022-12-26T21:29:07.531Z,29.13
2022-12-26T21:30:45.620Z,24.13
2022-12-26T21:32:18.796Z,24.52
2022-12-26T21:33:51.962Z,34.55
2022-12-26T21:35:25.137Z,26.33
2022-12-26T21:37:16.669Z,26.05
2022-12-26T21:38:52.879Z,26.80
2022-12-26T21:40:27.633Z,25.63
2022-12-26T21:42:01.338Z,28.33
2022-12-26T21:43:34.462Z,29.90
2022-12-26T21:45:09.061Z,29.63
2022-12-26T21:46:42.175Z,34.00
2022-12-26T21:48:16.049Z,32.28
2022-12-26T21:49:49.569Z,30.88
2022-12-26T21:51:24.856Z,31.70
2022-12-26T21:52:56.974Z,29.83
2022-12-26T21:54:49.571Z,26.42
2022-12-26T21:56:22.839Z,28.15
2022-12-26T21:57:56.183Z,31.95
2022-12-26T21:59:46.475Z,32.15
2022-12-26T22:01:20.189Z,34.92
2022-12-26T22:03:11.248Z,36.85
2022-12-26T22:04:43.368Z,48.10
2022-12-26T22:06:17.510Z,36.92
2022-12-26T22:07:55.506Z,40.55
2022-12-26T22:09:28.652Z,45.72
2022-12-26T22:11:20.700Z,48.90
2022-12-26T22:12:58.670Z,49.65
2022-12-26T22:14:31.887Z,49.92
2022-12-26T22:16:07.873Z,37.33
2022-12-26T22:17:41.085Z,27.52
2022-12-26T22:19:14.194Z,27.67
2022-12-26T22:20:47.434Z,31.95
2022-12-26T22:22:20.626Z,28.48
2022-12-26T22:23:54.722Z,31.52
2022-12-26T22:25:26.969Z,39.42
2022-12-26T22:27:01.473Z,64.47
2022-12-26T22:28:35.097Z,42.80
2022-12-26T22:30:08.353Z,27.67
2022-12-26T22:31:41.590Z,19.48
2022-12-26T22:33:14.720Z,21.42
2022-12-26T22:34:48.070Z,17.08
2022-12-26T22:36:21.213Z,18.42
2022-12-26T22:37:54.405Z,17.63
2022-12-26T22:39:27.603Z,13.80
2022-12-26T22:41:01.244Z,13.98
2022-12-26T22:42:34.732Z,9.40
2022-12-26T22:44:08.295Z,11.23
2022-12-26T22:45:41.935Z,9.15
2022-12-26T22:47:15.470Z,10.52
2022-12-26T22:48:47.671Z,9.35
2022-12-26T22:50:20.917Z,9.45
2022-12-26T22:51:54.110Z,11.50
2022-12-26T22:53:29.088Z,8.95
2022-12-26T22:55:01.243Z,9.43
2022-12-26T22:56:34.768Z,9.30
2022-12-26T22:58:08.301Z,10.18
2022-12-26T23:00:07.732Z,9.88
2022-12-26T23:01:34.667Z,8.98
2022-12-26T23:03:08.099Z,10.82
2022-12-26T23:04:41.682Z,14.15
2022-12-26T23:06:20.841Z,12.68
2022-12-26T23:07:54.565Z,11.35
2022-12-26T23:09:28.197Z,12.57
2022-12-26T23:11:01.788Z,12.40
2022-12-26T23:12:43.723Z,10.27